sensor_id;sensor_type;location;lat;lon;timestamp;pressure;altitude;pressure_sealevel;temperature;humidity
72395;BME280;60384;48.152;11.614;2023-06-26T00:01:23;95736.72;;;21.76;45.14
72395;BME280;60384;48.152;11.614;2023-06-26T00:04:24;95741.03;;;21.70;45.53
72395;BME280;60384;48.152;11.614;2023-06-26T00:07:26;95736.72;;;21.65;45.40
72395;BME280;60384;48.152;11.614;2023-06-26T00:10:29;95732.06;;;21.62;45.15
72395;BME280;60384;48.152;11.614;2023-06-26T00:13:31;95722.31;;;21.54;45.32
72395;BME280;60384;48.152;11.614;2023-06-26T00:16:32;95727.78;;;21.51;45.16
72395;BME280;60384;48.152;11.614;2023-06-26T00:19:34;95724.28;;;21.47;45.43
72395;BME280;60384;48.152;11.614;2023-06-26T00:22:35;95730.47;;;21.43;45.49
72395;BME280;60384;48.152;11.614;2023-06-26T00:25:42;95729.31;;;21.41;45.60
72395;BME280;60384;48.152;11.614;2023-06-26T00:28:44;95730.47;;;21.40;45.19
72395;BME280;60384;48.152;11.614;2023-06-26T00:31:46;95735.50;;;21.38;45.47
72395;BME280;60384;48.152;11.614;2023-06-26T00:34:47;95732.78;;;21.34;45.59
72395;BME280;60384;48.152;11.614;2023-06-26T00:37:50;95740.13;;;21.30;45.53
72395;BME280;60384;48.152;11.614;2023-06-26T00:40:53;95740.13;;;21.27;45.50
72395;BME280;60384;48.152;11.614;2023-06-26T00:43:56;95743.63;;;21.24;45.59
72395;BME280;60384;48.152;11.614;2023-06-26T00:46:58;95737.00;;;21.21;45.38
72395;BME280;60384;48.152;11.614;2023-06-26T00:49:59;95735.06;;;21.18;45.34
72395;BME280;60384;48.152;11.614;2023-06-26T00:53:01;95731.50;;;21.14;45.66
72395;BME280;60384;48.152;11.614;2023-06-26T00:56:04;95737.34;;;21.13;45.53
72395;BME280;60384;48.152;11.614;2023-06-26T00:59:06;95741.97;;;21.09;45.74
72395;BME280;60384;48.152;11.614;2023-06-26T01:02:07;95741.16;;;21.04;45.66
72395;BME280;60384;48.152;11.614;2023-06-26T01:05:10;95743.47;;;21.02;45.45
72395;BME280;60384;48.152;11.614;2023-06-26T01:08:13;95738.44;;;21.01;45.56
72395;BME280;60384;48.152;11.614;2023-06-26T01:11:16;95735.34;;;20.99;45.63
72395;BME280;60384;48.152;11.614;2023-06-26T01:14:18;95736.09;;;20.96;45.57
72395;BME280;60384;48.152;11.614;2023-06-26T01:17:19;95736.84;;;20.93;45.77
72395;BME280;60384;48.152;11.614;2023-06-26T01:20:21;95732.94;;;20.90;45.67
72395;BME280;60384;48.152;11.614;2023-06-26T01:23:24;95727.50;;;20.87;45.70
72395;BME280;60384;48.152;11.614;2023-06-26T01:26:32;95731.00;;;20.84;45.67
72395;BME280;60384;48.152;11.614;2023-06-26T01:29:35;95729.03;;;20.81;45.68
72395;BME280;60384;48.152;11.614;2023-06-26T01:32:37;95730.97;;;20.77;45.85
72395;BME280;60384;48.152;11.614;2023-06-26T01:35:40;95732.88;;;20.73;45.81
72395;BME280;60384;48.152;11.614;2023-06-26T01:38:42;95731.69;;;20.70;45.85
72395;BME280;60384;48.152;11.614;2023-06-26T01:41:45;95727.78;;;20.64;45.89
72395;BME280;60384;48.152;11.614;2023-06-26T01:44:47;95718.84;;;20.60;45.83
72395;BME280;60384;48.152;11.614;2023-06-26T01:47:49;95725.44;;;20.59;45.95
72395;BME280;60384;48.152;11.614;2023-06-26T01:50:52;95724.22;;;20.56;45.93
72395;BME280;60384;48.152;11.614;2023-06-26T01:53:54;95724.22;;;20.49;46.00
72395;BME280;60384;48.152;11.614;2023-06-26T01:56:59;95726.09;;;20.45;45.98
72395;BME280;60384;48.152;11.614;2023-06-26T02:00:02;95721.06;;;20.44;45.98
72395;BME280;60384;48.152;11.614;2023-06-26T02:03:13;95710.59;;;20.42;46.08
72395;BME280;60384;48.152;11.614;2023-06-26T02:06:15;95720.25;;;20.40;45.94
72395;BME280;60384;48.152;11.614;2023-06-26T02:09:17;95720.25;;;20.36;46.00
72395;BME280;60384;48.152;11.614;2023-06-26T02:12:20;95720.56;;;20.31;46.05
72395;BME280;60384;48.152;11.614;2023-06-26T02:15:21;95730.63;;;20.27;46.05
72395;BME280;60384;48.152;11.614;2023-06-26T02:18:23;95724.41;;;20.27;46.04
72395;BME280;60384;48.152;11.614;2023-06-26T02:21:25;95725.94;;;20.24;46.19
72395;BME280;60384;48.152;11.614;2023-06-26T02:24:30;95726.66;;;20.17;46.17
72395;BME280;60384;48.152;11.614;2023-06-26T02:27:34;95721.97;;;20.11;46.22
72395;BME280;60384;48.152;11.614;2023-06-26T02:30:35;95723.50;;;20.08;46.26
72395;BME280;60384;48.152;11.614;2023-06-26T02:33:37;95724.66;;;20.07;46.24
72395;BME280;60384;48.152;11.614;2023-06-26T02:36:39;95723.88;;;20.07;46.18
72395;BME280;60384;48.152;11.614;2023-06-26T02:39:42;95731.59;;;20.05;46.20
72395;BME280;60384;48.152;11.614;2023-06-26T02:42:46;95722.66;;;20.01;46.29
72395;BME280;60384;48.152;11.614;2023-06-26T02:45:48;95730.41;;;19.99;46.37
72395;BME280;60384;48.152;11.614;2023-06-26T02:48:50;95726.88;;;19.95;46.18
72395;BME280;60384;48.152;11.614;2023-06-26T02:51:52;95728.78;;;19.91;46.31
72395;BME280;60384;48.152;11.614;2023-06-26T02:54:59;95730.72;;;19.90;46.31
72395;BME280;60384;48.152;11.614;2023-06-26T02:58:02;95726.84;;;19.88;46.33
72395;BME280;60384;48.152;11.614;2023-06-26T03:01:04;95731.84;;;19.86;46.43
72395;BME280;60384;48.152;11.614;2023-06-26T03:04:06;95731.03;;;19.82;46.47
72395;BME280;60384;48.152;11.614;2023-06-26T03:07:08;95725.94;;;19.76;46.41
72395;BME280;60384;48.152;11.614;2023-06-26T03:10:11;95728.25;;;19.74;46.42
72395;BME280;60384;48.152;11.614;2023-06-26T03:13:14;95728.63;;;19.73;46.48
72395;BME280;60384;48.152;11.614;2023-06-26T03:16:16;95724.34;;;19.72;46.33
72395;BME280;60384;48.152;11.614;2023-06-26T03:19:18;95727.84;;;19.72;46.63
72395;BME280;60384;48.152;11.614;2023-06-26T03:22:38;95727.84;;;19.72;46.33
72395;BME280;60384;48.152;11.614;2023-06-26T03:25:40;95731.66;;;19.68;46.37
72395;BME280;60384;48.152;11.614;2023-06-26T03:29:03;95724.66;;;19.63;46.37
72395;BME280;60384;48.152;11.614;2023-06-26T03:32:05;95723.47;;;19.61;46.45
72395;BME280;60384;48.152;11.614;2023-06-26T03:35:09;95723.09;;;19.59;46.60
72395;BME280;60384;48.152;11.614;2023-06-26T03:38:10;95727.72;;;19.58;46.63
72395;BME280;60384;48.152;11.614;2023-06-26T03:41:12;95739.72;;;19.57;46.42
72395;BME280;60384;48.152;11.614;2023-06-26T03:44:16;95733.50;;;19.57;46.67
72395;BME280;60384;48.152;11.614;2023-06-26T03:47:21;95731.53;;;19.54;46.48
72395;BME280;60384;48.152;11.614;2023-06-26T03:50:23;95734.63;;;19.52;46.50
72395;BME280;60384;48.152;11.614;2023-06-26T03:53:25;95727.22;;;19.49;46.56
72395;BME280;60384;48.152;11.614;2023-06-26T03:56:26;95736.50;;;19.48;46.48
72395;BME280;60384;48.152;11.614;2023-06-26T03:59:29;95732.25;;;19.47;46.49
72395;BME280;60384;48.152;11.614;2023-06-26T04:02:31;95730.59;;;19.42;46.57
72395;BME280;60384;48.152;11.614;2023-06-26T04:05:32;95726.72;;;19.40;46.74
72395;BME280;60384;48.152;11.614;2023-06-26T04:08:35;95734.44;;;19.38;46.77
72395;BME280;60384;48.152;11.614;2023-06-26T04:11:37;95728.22;;;19.37;46.78
72395;BME280;60384;48.152;11.614;2023-06-26T04:14:40;95734.84;;;19.40;46.81
72395;BME280;60384;48.152;11.614;2023-06-26T04:17:41;95737.97;;;19.42;46.80
72395;BME280;60384;48.152;11.614;2023-06-26T04:24:05;95730.59;;;19.42;46.57
72395;BME280;60384;48.152;11.614;2023-06-26T04:27:06;95722.91;;;19.45;46.72
72395;BME280;60384;48.152;11.614;2023-06-26T04:30:10;95730.69;;;19.46;46.62
72395;BME280;60384;48.152;11.614;2023-06-26T04:33:13;95736.81;;;19.43;46.72
72395;BME280;60384;48.152;11.614;2023-06-26T04:36:15;95743.41;;;19.42;46.84
72395;BME280;60384;48.152;11.614;2023-06-26T04:39:17;95732.25;;;19.47;46.77
72395;BME280;60384;48.152;11.614;2023-06-26T04:42:18;95733.44;;;19.50;46.57
72395;BME280;60384;48.152;11.614;2023-06-26T04:45:23;95735.41;;;19.53;46.82
72395;BME280;60384;48.152;11.614;2023-06-26T04:48:24;95739.72;;;19.57;46.79
72395;BME280;60384;48.152;11.614;2023-06-26T04:51:27;95736.25;;;19.60;46.51
72395;BME280;60384;48.152;11.614;2023-06-26T04:54:29;95728.09;;;19.60;46.64
72395;BME280;60384;48.152;11.614;2023-06-26T04:57:32;95737.06;;;19.64;46.80
72395;BME280;60384;48.152;11.614;2023-06-26T05:00:35;95727.81;;;19.69;47.04
72395;BME280;60384;48.152;11.614;2023-06-26T05:03:36;95732.91;;;19.74;46.86
72395;BME280;60384;48.152;11.614;2023-06-26T05:06:38;95735.63;;;19.77;46.70
72395;BME280;60384;48.152;11.614;2023-06-26T05:09:40;95738.00;;;19.83;46.72
72395;BME280;60384;48.152;11.614;2023-06-26T05:12:41;95730.69;;;19.87;46.82
72395;BME280;60384;48.152;11.614;2023-06-26T05:15:44;95734.22;;;19.94;46.63
72395;BME280;60384;48.152;11.614;2023-06-26T05:18:46;95733.50;;;20.01;46.62
72395;BME280;60384;48.152;11.614;2023-06-26T05:21:48;95731.59;;;20.05;46.53
72395;BME280;60384;48.152;11.614;2023-06-26T05:24:50;95722.75;;;20.11;46.59
72395;BME280;60384;48.152;11.614;2023-06-26T05:28:05;95732.09;;;20.17;46.61
72395;BME280;60384;48.152;11.614;2023-06-26T05:31:10;95727.09;;;20.23;46.61
72395;BME280;60384;48.152;11.614;2023-06-26T05:34:12;95734.50;;;20.26;46.66
72395;BME280;60384;48.152;11.614;2023-06-26T05:37:15;95730.63;;;20.31;46.63
72395;BME280;60384;48.152;11.614;2023-06-26T05:40:19;95728.38;;;20.36;46.70
72395;BME280;60384;48.152;11.614;2023-06-26T05:43:21;95729.59;;;20.42;46.76
72395;BME280;60384;48.152;11.614;2023-06-26T05:46:24;95736.22;;;20.48;46.65
72395;BME280;60384;48.152;11.614;2023-06-26T05:49:25;95739.00;;;20.55;46.70
72395;BME280;60384;48.152;11.614;2023-06-26T05:52:27;95729.34;;;20.61;46.82
72395;BME280;60384;48.152;11.614;2023-06-26T05:55:30;95738.28;;;20.69;46.65
72395;BME280;60384;48.152;11.614;2023-06-26T05:58:31;95737.94;;;20.78;46.68
72395;BME280;60384;48.152;11.614;2023-06-26T06:01:35;95739.94;;;20.84;46.64
72395;BME280;60384;48.152;11.614;2023-06-26T06:04:37;95743.06;;;20.93;46.65
72395;BME280;60384;48.152;11.614;2023-06-26T06:07:38;95738.81;;;20.99;46.76
72395;BME280;60384;48.152;11.614;2023-06-26T06:10:40;95726.81;;;21.04;46.68
72395;BME280;60384;48.152;11.614;2023-06-26T06:13:41;95728.38;;;21.09;46.68
72395;BME280;60384;48.152;11.614;2023-06-26T06:16:44;95726.47;;;21.13;46.77
72395;BME280;60384;48.152;11.614;2023-06-26T06:19:46;95724.97;;;21.19;46.76
72395;BME280;60384;48.152;11.614;2023-06-26T06:22:47;95726.53;;;21.23;46.80
72395;BME280;60384;48.152;11.614;2023-06-26T06:25:49;95726.53;;;21.30;46.85
72395;BME280;60384;48.152;11.614;2023-06-26T06:28:50;95724.22;;;21.36;46.78
72395;BME280;60384;48.152;11.614;2023-06-26T06:31:53;95721.94;;;21.41;46.85
72395;BME280;60384;48.152;11.614;2023-06-26T06:34:55;95715.34;;;21.50;46.97
72395;BME280;60384;48.152;11.614;2023-06-26T06:37:57;95725.06;;;21.58;46.92
72395;BME280;60384;48.152;11.614;2023-06-26T06:40:59;95729.75;;;21.68;46.73
72395;BME280;60384;48.152;11.614;2023-06-26T06:44:01;95722.78;;;21.81;46.55
72395;BME280;60384;48.152;11.614;2023-06-26T06:47:04;95722.00;;;21.91;46.87
72395;BME280;60384;48.152;11.614;2023-06-26T06:50:06;95726.31;;;22.03;46.52
72395;BME280;60384;48.152;11.614;2023-06-26T06:53:09;95731.75;;;22.17;46.60
72395;BME280;60384;48.152;11.614;2023-06-26T06:56:10;95722.03;;;22.30;46.84
72395;BME280;60384;48.152;11.614;2023-06-26T06:59:12;95731.34;;;22.40;46.39
72395;BME280;60384;48.152;11.614;2023-06-26T07:02:15;95727.03;;;22.53;46.42
72395;BME280;60384;48.152;11.614;2023-06-26T07:05:17;95721.56;;;22.63;46.56
72395;BME280;60384;48.152;11.614;2023-06-26T07:08:19;95725.06;;;22.75;46.93
72395;BME280;60384;48.152;11.614;2023-06-26T07:11:20;95720.38;;;22.89;46.82
72395;BME280;60384;48.152;11.614;2023-06-26T07:14:22;95723.06;;;22.96;46.64
72395;BME280;60384;48.152;11.614;2023-06-26T07:17:25;95724.59;;;23.04;46.57
72395;BME280;60384;48.152;11.614;2023-06-26T07:20:27;95715.97;;;23.13;46.37
72395;BME280;60384;48.152;11.614;2023-06-26T07:23:28;95724.13;;;23.24;46.32
72395;BME280;60384;48.152;11.614;2023-06-26T07:26:30;95726.44;;;23.29;46.48
72395;BME280;60384;48.152;11.614;2023-06-26T07:29:32;95722.50;;;23.37;46.60
72395;BME280;60384;48.152;11.614;2023-06-26T07:32:34;95722.06;;;23.42;46.72
72395;BME280;60384;48.152;11.614;2023-06-26T07:35:36;95716.22;;;23.51;46.65
72395;BME280;60384;48.152;11.614;2023-06-26T07:38:38;95724.00;;;23.56;46.71
72395;BME280;60384;48.152;11.614;2023-06-26T07:41:39;95727.84;;;23.58;46.78
72395;BME280;60384;48.152;11.614;2023-06-26T07:44:41;95725.47;;;23.64;46.54
72395;BME280;60384;48.152;11.614;2023-06-26T07:47:44;95717.63;;;23.76;46.88
72395;BME280;60384;48.152;11.614;2023-06-26T07:50:46;95721.47;;;23.86;46.41
72395;BME280;60384;48.152;11.614;2023-06-26T07:53:47;95719.44;;;23.94;46.43
72395;BME280;60384;48.152;11.614;2023-06-26T07:56:52;95711.59;;;23.99;46.58
72395;BME280;60384;48.152;11.614;2023-06-26T07:59:54;95713.06;;;24.11;46.60
72395;BME280;60384;48.152;11.614;2023-06-26T08:02:58;95717.34;;;24.19;46.64
72395;BME280;60384;48.152;11.614;2023-06-26T08:05:59;95715.75;;;24.21;46.85
72395;BME280;60384;48.152;11.614;2023-06-26T08:09:01;95716.47;;;24.29;46.54
72395;BME280;60384;48.152;11.614;2023-06-26T08:12:05;95709.00;;;24.37;46.65
72395;BME280;60384;48.152;11.614;2023-06-26T08:15:07;95717.53;;;24.42;46.80
72395;BME280;60384;48.152;11.614;2023-06-26T08:18:10;95708.06;;;24.50;46.51
72395;BME280;60384;48.152;11.614;2023-06-26T08:21:12;95706.09;;;24.54;46.55
72395;BME280;60384;48.152;11.614;2023-06-26T08:24:14;95713.41;;;24.61;46.70
72395;BME280;60384;48.152;11.614;2023-06-26T08:27:17;95701.25;;;24.69;46.43
72395;BME280;60384;48.152;11.614;2023-06-26T08:30:19;95712.09;;;24.76;46.76
72395;BME280;60384;48.152;11.614;2023-06-26T08:33:22;95712.03;;;24.83;46.36
72395;BME280;60384;48.152;11.614;2023-06-26T08:36:24;95715.03;;;24.96;46.32
72395;BME280;60384;48.152;11.614;2023-06-26T08:39:26;95704.00;;;25.03;46.44
72395;BME280;60384;48.152;11.614;2023-06-26T08:42:28;95700.78;;;25.12;46.41
72395;BME280;60384;48.152;11.614;2023-06-26T08:45:29;95706.94;;;25.19;46.15
72395;BME280;60384;48.152;11.614;2023-06-26T08:48:32;95706.91;;;25.23;46.32
72395;BME280;60384;48.152;11.614;2023-06-26T08:51:34;95706.00;;;25.29;46.32
72395;BME280;60384;48.152;11.614;2023-06-26T08:54:40;95703.97;;;25.37;46.43
72395;BME280;60384;48.152;11.614;2023-06-26T08:57:44;95696.13;;;25.39;46.49
72395;BME280;60384;48.152;11.614;2023-06-26T09:00:46;95704.22;;;25.46;46.17
72395;BME280;60384;48.152;11.614;2023-06-26T09:03:51;95704.91;;;25.57;45.92
72395;BME280;60384;48.152;11.614;2023-06-26T09:06:53;95689.84;;;25.69;46.08
72395;BME280;60384;48.152;11.614;2023-06-26T09:09:55;95692.94;;;25.74;45.94
72395;BME280;60384;48.152;11.614;2023-06-26T09:12:56;95683.47;;;25.79;46.07
72395;BME280;60384;48.152;11.614;2023-06-26T09:15:58;95684.41;;;25.92;46.32
72395;BME280;60384;48.152;11.614;2023-06-26T09:19:01;95686.25;;;26.02;46.11
72395;BME280;60384;48.152;11.614;2023-06-26T09:22:02;95679.81;;;26.12;45.66
72395;BME280;60384;48.152;11.614;2023-06-26T09:25:04;95667.88;;;26.22;45.43
72395;BME280;60384;48.152;11.614;2023-06-26T09:28:06;95674.88;;;26.27;45.95
72395;BME280;60384;48.152;11.614;2023-06-26T09:31:09;95663.03;;;26.33;46.10
72395;BME280;60384;48.152;11.614;2023-06-26T09:34:12;95670.16;;;26.51;45.81
72395;BME280;60384;48.152;11.614;2023-06-26T09:37:14;95680.56;;;26.59;45.27
72395;BME280;60384;48.152;11.614;2023-06-26T09:40:16;95674.59;;;26.64;46.01
72395;BME280;60384;48.152;11.614;2023-06-26T09:43:18;95667.84;;;26.69;46.04
72395;BME280;60384;48.152;11.614;2023-06-26T09:46:24;95665.69;;;26.80;45.27
72395;BME280;60384;48.152;11.614;2023-06-26T09:49:27;95664.59;;;26.97;45.26
72395;BME280;60384;48.152;11.614;2023-06-26T09:52:28;95656.31;;;27.17;45.48
72395;BME280;60384;48.152;11.614;2023-06-26T09:55:33;95651.81;;;27.27;45.62
72395;BME280;60384;48.152;11.614;2023-06-26T09:58:35;95668.47;;;27.36;45.04
72395;BME280;60384;48.152;11.614;2023-06-26T10:01:39;95653.41;;;27.44;45.41
72395;BME280;60384;48.152;11.614;2023-06-26T10:04:43;95650.72;;;27.40;45.52
72395;BME280;60384;48.152;11.614;2023-06-26T10:07:44;95645.84;;;27.48;45.36
72395;BME280;60384;48.152;11.614;2023-06-26T10:10:46;95645.56;;;27.62;45.37
72395;BME280;60384;48.152;11.614;2023-06-26T10:13:50;95647.47;;;27.81;44.82
72395;BME280;60384;48.152;11.614;2023-06-26T10:16:52;95649.88;;;27.95;45.03
72395;BME280;60384;48.152;11.614;2023-06-26T10:20:00;95647.44;;;27.98;44.87
72395;BME280;60384;48.152;11.614;2023-06-26T10:23:03;95644.03;;;27.93;44.87
72395;BME280;60384;48.152;11.614;2023-06-26T10:26:06;95642.31;;;28.00;44.91
72395;BME280;60384;48.152;11.614;2023-06-26T10:29:08;95644.72;;;28.14;44.93
72395;BME280;60384;48.152;11.614;2023-06-26T10:32:10;95637.06;;;28.21;44.92
72395;BME280;60384;48.152;11.614;2023-06-26T10:35:14;95638.44;;;28.29;44.89
72395;BME280;60384;48.152;11.614;2023-06-26T10:38:16;95638.16;;;28.40;44.77
72395;BME280;60384;48.152;11.614;2023-06-26T10:41:21;95627.75;;;28.48;44.61
72395;BME280;60384;48.152;11.614;2023-06-26T10:44:23;95646.72;;;28.58;44.60
72395;BME280;60384;48.152;11.614;2023-06-26T10:47:31;95639.63;;;28.73;44.67
72395;BME280;60384;48.152;11.614;2023-06-26T10:50:34;95633.06;;;28.84;44.66
72395;BME280;60384;48.152;11.614;2023-06-26T10:53:37;95613.63;;;28.91;44.34
72395;BME280;60384;48.152;11.614;2023-06-26T10:56:42;95619.78;;;28.95;44.30
72395;BME280;60384;48.152;11.614;2023-06-26T10:59:44;95621.44;;;29.05;44.37
72395;BME280;60384;48.152;11.614;2023-06-26T11:02:49;95620.25;;;29.18;44.39
72395;BME280;60384;48.152;11.614;2023-06-26T11:09:09;95620.28;;;29.31;44.04
72395;BME280;60384;48.152;11.614;2023-06-26T11:12:12;95621.41;;;29.34;44.41
72395;BME280;60384;48.152;11.614;2023-06-26T11:15:14;95623.94;;;29.41;44.20
72395;BME280;60384;48.152;11.614;2023-06-26T11:18:16;95616.88;;;29.27;44.16
72395;BME280;60384;48.152;11.614;2023-06-26T11:21:17;95621.47;;;29.17;44.26
72395;BME280;60384;48.152;11.614;2023-06-26T11:24:24;95623.59;;;29.26;44.29
72395;BME280;60384;48.152;11.614;2023-06-26T11:27:31;95614.03;;;29.43;43.71
72395;BME280;60384;48.152;11.614;2023-06-26T11:30:33;95613.03;;;29.63;43.51
72395;BME280;60384;48.152;11.614;2023-06-26T11:33:34;95615.97;;;29.81;43.62
72395;BME280;60384;48.152;11.614;2023-06-26T11:36:36;95605.72;;;30.07;43.63
72395;BME280;60384;48.152;11.614;2023-06-26T11:39:39;95610.22;;;30.13;43.19
72395;BME280;60384;48.152;11.614;2023-06-26T11:42:40;95617.47;;;30.20;43.69
72395;BME280;60384;48.152;11.614;2023-06-26T11:45:42;95603.41;;;30.05;43.90
72395;BME280;60384;48.152;11.614;2023-06-26T11:48:44;95615.50;;;30.08;43.38
72395;BME280;60384;48.152;11.614;2023-06-26T11:51:45;95615.06;;;30.09;43.80
72395;BME280;60384;48.152;11.614;2023-06-26T11:54:49;95617.16;;;30.18;43.24
72395;BME280;60384;48.152;11.614;2023-06-26T11:57:52;95608.09;;;30.30;42.94
72395;BME280;60384;48.152;11.614;2023-06-26T12:00:54;95596.53;;;30.22;43.12
72395;BME280;60384;48.152;11.614;2023-06-26T12:03:57;95599.53;;;30.15;43.25
72395;BME280;60384;48.152;11.614;2023-06-26T12:06:59;95600.31;;;30.37;43.20
72395;BME280;60384;48.152;11.614;2023-06-26T12:10:06;95602.28;;;30.71;42.71
72395;BME280;60384;48.152;11.614;2023-06-26T12:13:08;95596.31;;;31.16;42.50
72395;BME280;60384;48.152;11.614;2023-06-26T12:16:10;95607.59;;;32.20;41.72
72395;BME280;60384;48.152;11.614;2023-06-26T12:19:11;95598.91;;;34.50;37.80
72395;BME280;60384;48.152;11.614;2023-06-26T12:22:13;95606.22;;;36.35;35.37
72395;BME280;60384;48.152;11.614;2023-06-26T12:25:20;95595.56;;;34.61;37.90
72395;BME280;60384;48.152;11.614;2023-06-26T12:28:22;95605.03;;;36.82;35.22
72395;BME280;60384;48.152;11.614;2023-06-26T12:31:24;95592.84;;;37.62;34.57
72395;BME280;60384;48.152;11.614;2023-06-26T12:34:26;95602.59;;;38.15;34.51
72395;BME280;60384;48.152;11.614;2023-06-26T12:37:28;95605.91;;;38.84;33.70
72395;BME280;60384;48.152;11.614;2023-06-26T12:40:31;95605.22;;;39.17;33.88
72395;BME280;60384;48.152;11.614;2023-06-26T12:43:34;95581.63;;;39.46;34.24
72395;BME280;60384;48.152;11.614;2023-06-26T12:46:39;95585.78;;;38.04;36.85
72395;BME280;60384;48.152;11.614;2023-06-26T12:49:41;95595.22;;;37.75;37.41
72395;BME280;60384;48.152;11.614;2023-06-26T12:52:43;95584.53;;;38.64;35.95
72395;BME280;60384;48.152;11.614;2023-06-26T12:55:46;95579.81;;;39.09;35.51
72395;BME280;60384;48.152;11.614;2023-06-26T12:58:48;95586.09;;;37.43;38.21
72395;BME280;60384;48.152;11.614;2023-06-26T13:01:49;95583.78;;;35.19;42.01
72395;BME280;60384;48.152;11.614;2023-06-26T13:04:51;95581.78;;;36.04;40.17
72395;BME280;60384;48.152;11.614;2023-06-26T13:07:53;95588.94;;;37.86;37.57
72395;BME280;60384;48.152;11.614;2023-06-26T13:10:56;95576.19;;;38.86;36.54
72395;BME280;60384;48.152;11.614;2023-06-26T13:13:58;95569.88;;;39.25;36.40
72395;BME280;60384;48.152;11.614;2023-06-26T13:17:00;95567.84;;;39.59;36.56
72395;BME280;60384;48.152;11.614;2023-06-26T13:20:02;95569.16;;;39.47;36.93
72395;BME280;60384;48.152;11.614;2023-06-26T13:23:05;95566.88;;;38.36;38.76
72395;BME280;60384;48.152;11.614;2023-06-26T13:26:09;95556.06;;;37.58;39.38
72395;BME280;60384;48.152;11.614;2023-06-26T13:29:10;95564.34;;;37.16;39.72
72395;BME280;60384;48.152;11.614;2023-06-26T13:32:12;95561.03;;;35.85;41.70
72395;BME280;60384;48.152;11.614;2023-06-26T13:35:13;95554.63;;;36.34;40.60
72395;BME280;60384;48.152;11.614;2023-06-26T13:38:15;95560.41;;;35.60;41.31
72395;BME280;60384;48.152;11.614;2023-06-26T13:41:19;95554.56;;;34.79;41.89
72395;BME280;60384;48.152;11.614;2023-06-26T13:44:21;95551.56;;;36.32;39.78
72395;BME280;60384;48.152;11.614;2023-06-26T13:47:25;95560.94;;;36.80;39.25
72395;BME280;60384;48.152;11.614;2023-06-26T13:50:26;95549.13;;;36.39;39.32
72395;BME280;60384;48.152;11.614;2023-06-26T13:53:28;95554.06;;;37.02;38.62
72395;BME280;60384;48.152;11.614;2023-06-26T13:56:31;95551.28;;;37.02;38.48
72395;BME280;60384;48.152;11.614;2023-06-26T13:59:33;95552.69;;;35.50;40.97
72395;BME280;60384;48.152;11.614;2023-06-26T14:02:35;95551.84;;;35.00;41.09
72395;BME280;60384;48.152;11.614;2023-06-26T14:05:37;95548.94;;;36.08;39.40
72395;BME280;60384;48.152;11.614;2023-06-26T14:08:38;95541.59;;;36.25;38.86
72395;BME280;60384;48.152;11.614;2023-06-26T14:11:41;95542.59;;;36.68;38.19
72395;BME280;60384;48.152;11.614;2023-06-26T14:14:43;95536.97;;;36.63;38.22
72395;BME280;60384;48.152;11.614;2023-06-26T14:17:44;95558.03;;;36.69;38.38
72395;BME280;60384;48.152;11.614;2023-06-26T14:20:47;95548.81;;;36.17;39.06
72395;BME280;60384;48.152;11.614;2023-06-26T14:23:49;95540.47;;;36.37;38.80
72395;BME280;60384;48.152;11.614;2023-06-26T14:26:52;95546.19;;;36.74;38.28
72395;BME280;60384;48.152;11.614;2023-06-26T14:29:54;95542.91;;;36.76;38.29
72395;BME280;60384;48.152;11.614;2023-06-26T14:32:55;95541.72;;;35.96;39.17
72395;BME280;60384;48.152;11.614;2023-06-26T14:35:57;95528.66;;;35.67;39.74
72395;BME280;60384;48.152;11.614;2023-06-26T14:38:59;95535.31;;;35.20;40.40
72395;BME280;60384;48.152;11.614;2023-06-26T14:42:02;95532.53;;;35.70;39.46
72395;BME280;60384;48.152;11.614;2023-06-26T14:45:04;95533.25;;;36.05;39.14
72395;BME280;60384;48.152;11.614;2023-06-26T14:48:05;95527.09;;;36.01;39.44
72395;BME280;60384;48.152;11.614;2023-06-26T14:51:07;95528.44;;;35.50;39.89
72395;BME280;60384;48.152;11.614;2023-06-26T14:54:09;95530.22;;;35.04;40.22
72395;BME280;60384;48.152;11.614;2023-06-26T14:57:12;95522.16;;;34.62;40.96
72395;BME280;60384;48.152;11.614;2023-06-26T15:00:14;95517.06;;;34.46;41.23
72395;BME280;60384;48.152;11.614;2023-06-26T15:03:15;95520.19;;;34.00;41.15
72395;BME280;60384;48.152;11.614;2023-06-26T15:06:17;95513.22;;;34.05;41.33
72395;BME280;60384;48.152;11.614;2023-06-26T15:09:19;95514.00;;;33.81;41.38
72395;BME280;60384;48.152;11.614;2023-06-26T15:12:22;95517.69;;;33.54;41.39
72395;BME280;60384;48.152;11.614;2023-06-26T15:15:24;95506.78;;;33.18;42.09
72395;BME280;60384;48.152;11.614;2023-06-26T15:18:26;95507.72;;;33.06;41.62
72395;BME280;60384;48.152;11.614;2023-06-26T15:21:27;95502.25;;;32.88;41.67
72395;BME280;60384;48.152;11.614;2023-06-26T15:24:29;95507.66;;;32.82;41.68
72395;BME280;60384;48.152;11.614;2023-06-26T15:27:32;95507.25;;;32.65;41.67
72395;BME280;60384;48.152;11.614;2023-06-26T15:30:33;95511.13;;;32.40;41.95
72395;BME280;60384;48.152;11.614;2023-06-26T15:33:35;95509.44;;;32.16;41.90
72395;BME280;60384;48.152;11.614;2023-06-26T15:36:37;95509.25;;;32.10;42.13
72395;BME280;60384;48.152;11.614;2023-06-26T15:39:38;95502.03;;;32.04;41.97
72395;BME280;60384;48.152;11.614;2023-06-26T15:42:48;95498.19;;;32.01;41.46
72395;BME280;60384;48.152;11.614;2023-06-26T15:45:50;95493.44;;;31.83;41.33
72395;BME280;60384;48.152;11.614;2023-06-26T15:48:51;95497.38;;;31.64;41.70
72395;BME280;60384;48.152;11.614;2023-06-26T15:51:53;95495.31;;;31.46;41.80
72395;BME280;60384;48.152;11.614;2023-06-26T15:54:54;95497.16;;;31.40;41.85
72395;BME280;60384;48.152;11.614;2023-06-26T15:57:57;95493.59;;;31.31;42.06
72395;BME280;60384;48.152;11.614;2023-06-26T16:01:00;95497.31;;;31.37;41.78